sensor_id;sensor_type;location;lat;lon;timestamp;pressure;altitude;pressure_sealevel;temperature;humidity
47636;BME280;33364;50.766;15.338;2022-10-16T00:01:22;94838.38;;;13.03;100.00
47636;BME280;33364;50.766;15.338;2022-10-16T00:03:48;94844.81;;;12.99;100.00
47636;BME280;33364;50.766;15.338;2022-10-16T00:06:16;94845.91;;;12.96;100.00
47636;BME280;33364;50.766;15.338;2022-10-16T00:08:42;94844.81;;;12.99;100.00
47636;BME280;33364;50.766;15.338;2022-10-16T00:11:30;94840.84;;;12.94;100.00
47636;BME280;33364;50.766;15.338;2022-10-16T00:14:00;94846.72;;;12.96;100.00
47636;BME280;33364;50.766;15.338;2022-10-16T00:16:27;94842.63;;;12.94;100.00
47636;BME280;33364;50.766;15.338;2022-10-16T00:18:53;94825.94;;;12.96;100.00
47636;BME280;33364;50.766;15.338;2022-10-16T00:21:22;94830.84;;;13.00;100.00
47636;BME280;33364;50.766;15.338;2022-10-16T00:23:52;94829.22;;;12.99;100.00
47636;BME280;33364;50.766;15.338;2022-10-16T00:26:19;94838.94;;;12.96;100.00
47636;BME280;33364;50.766;15.338;2022-10-16T00:28:49;94832.63;;;12.99;100.00
47636;BME280;33364;50.766;15.338;2022-10-16T00:31:18;94838.63;;;13.00;100.00
47636;BME280;33364;50.766;15.338;2022-10-16T00:33:44;94846.72;;;12.96;100.00
47636;BME280;33364;50.766;15.338;2022-10-16T00:36:12;94850.97;;;12.98;100.00
47636;BME280;33364;50.766;15.338;2022-10-16T00:38:38;94848.38;;;12.98;100.00
47636;BME280;33364;50.766;15.338;2022-10-16T00:41:11;94853.56;;;12.98;100.00
47636;BME280;33364;50.766;15.338;2022-10-16T00:43:44;94855.75;;;13.02;100.00
47636;BME280;33364;50.766;15.338;2022-10-16T00:46:22;94862.72;;;13.02;100.00
47636;BME280;33364;50.766;15.338;2022-10-16T00:48:54;94849.44;;;13.05;100.00
47636;BME280;33364;50.766;15.338;2022-10-16T00:51:26;94847.13;;;13.02;100.00
47636;BME280;33364;50.766;15.338;2022-10-16T00:53:54;94852.88;;;13.05;100.00
47636;BME280;33364;50.766;15.338;2022-10-16T00:56:20;94846.97;;;13.03;100.00
47636;BME280;33364;50.766;15.338;2022-10-16T00:58:46;94857.38;;;13.03;100.00
47636;BME280;33364;50.766;15.338;2022-10-16T01:01:12;94847.25;;;13.00;100.00
47636;BME280;33364;50.766;15.338;2022-10-16T01:03:37;94848.22;;;12.99;100.00
47636;BME280;33364;50.766;15.338;2022-10-16T01:06:27;94861.34;;;12.98;100.00
47636;BME280;33364;50.766;15.338;2022-10-16T01:14:19;94859.41;;;13.00;100.00
47636;BME280;33364;50.766;15.338;2022-10-16T01:16:49;94863.13;;;12.97;100.00
47636;BME280;33364;50.766;15.338;2022-10-16T01:19:51;94859.84;;;12.95;100.00
47636;BME280;33364;50.766;15.338;2022-10-16T01:22:25;94871.91;;;12.96;100.00
47636;BME280;33364;50.766;15.338;2022-10-16T01:24:57;94865.19;;;12.93;100.00
47636;BME280;33364;50.766;15.338;2022-10-16T01:27:30;94871.50;;;12.91;100.00
47636;BME280;33364;50.766;15.338;2022-10-16T01:30:08;94857.69;;;12.90;100.00
47636;BME280;33364;50.766;15.338;2022-10-16T01:32:52;94863.16;;;12.87;100.00
47636;BME280;33364;50.766;15.338;2022-10-16T01:35:27;94863.69;;;12.91;100.00
47636;BME280;33364;50.766;15.338;2022-10-16T01:38:07;94868.75;;;12.92;100.00
47636;BME280;33364;50.766;15.338;2022-10-16T01:40:36;94865.19;;;12.93;100.00
47636;BME280;33364;50.766;15.338;2022-10-16T01:43:15;94865.59;;;12.99;100.00
47636;BME280;33364;50.766;15.338;2022-10-16T01:45:44;94875.44;;;12.95;100.00
47636;BME280;33364;50.766;15.338;2022-10-16T01:48:12;94873.28;;;12.90;100.00
47636;BME280;33364;50.766;15.338;2022-10-16T01:50:41;94877.63;;;12.90;100.00
47636;BME280;33364;50.766;15.338;2022-10-16T01:53:11;94875.88;;;12.90;100.00
47636;BME280;33364;50.766;15.338;2022-10-16T01:55:40;94878.47;;;12.90;100.00
47636;BME280;33364;50.766;15.338;2022-10-16T01:58:11;94875.88;;;12.90;100.00
47636;BME280;33364;50.766;15.338;2022-10-16T02:00:38;94876.53;;;12.92;100.00
47636;BME280;33364;50.766;15.338;2022-10-16T02:03:06;94878.31;;;12.92;100.00
47636;BME280;33364;50.766;15.338;2022-10-16T02:05:47;94877.63;;;12.90;100.00
47636;BME280;33364;50.766;15.338;2022-10-16T02:08:15;94875.47;;;12.85;100.00
47636;BME280;33364;50.766;15.338;2022-10-16T02:10:40;94873.69;;;12.86;100.00
47636;BME280;33364;50.766;15.338;2022-10-16T02:13:10;94871.22;;;12.84;100.00
47636;BME280;33364;50.766;15.338;2022-10-16T02:15:37;94870.53;;;12.82;100.00
47636;BME280;33364;50.766;15.338;2022-10-16T02:18:04;94866.97;;;12.83;100.00
47636;BME280;33364;50.766;15.338;2022-10-16T02:20:34;94873.00;;;12.84;100.00
47636;BME280;33364;50.766;15.338;2022-10-16T02:23:07;94877.22;;;12.85;100.00
47636;BME280;33364;50.766;15.338;2022-10-16T02:25:38;94878.19;;;12.84;100.00
47636;BME280;33364;50.766;15.338;2022-10-16T02:28:16;94872.72;;;12.87;100.00
47636;BME280;33364;50.766;15.338;2022-10-16T02:30:47;94875.31;;;12.87;100.00
47636;BME280;33364;50.766;15.338;2022-10-16T02:33:15;94875.16;;;12.88;100.00
47636;BME280;33364;50.766;15.338;2022-10-16T02:35:43;94878.59;;;12.89;100.00
47636;BME280;33364;50.766;15.338;2022-10-16T02:38:10;94871.22;;;12.84;100.00
47636;BME280;33364;50.766;15.338;2022-10-16T02:40:37;94885.84;;;12.85;100.00
47636;BME280;33364;50.766;15.338;2022-10-16T02:43:04;94874.63;;;12.85;100.00
47636;BME280;33364;50.766;15.338;2022-10-16T02:45:30;94879.97;;;12.83;100.00
47636;BME280;33364;50.766;15.338;2022-10-16T02:47:56;94886.94;;;12.83;100.00
47636;BME280;33364;50.766;15.338;2022-10-16T02:50:22;94888.88;;;12.81;100.00
47636;BME280;33364;50.766;15.338;2022-10-16T02:52:48;94885.16;;;12.83;100.00
47636;BME280;33364;50.766;15.338;2022-10-16T02:55:13;94885.16;;;12.83;100.00
47636;BME280;33364;50.766;15.338;2022-10-16T02:57:39;94891.16;;;12.84;100.00
47636;BME280;33364;50.766;15.338;2022-10-16T03:00:08;94893.25;;;12.80;100.00
47636;BME280;33364;50.766;15.338;2022-10-16T03:02:34;94887.19;;;12.80;100.00
47636;BME280;33364;50.766;15.338;2022-10-16T03:04:59;94895.00;;;12.80;100.00
47636;BME280;33364;50.766;15.338;2022-10-16T03:07:25;94887.50;;;12.77;100.00
47636;BME280;33364;50.766;15.338;2022-10-16T03:09:50;94897.75;;;12.78;100.00
47636;BME280;33364;50.766;15.338;2022-10-16T03:12:16;94894.06;;;12.81;100.00
47636;BME280;33364;50.766;15.338;2022-10-16T03:14:41;94890.50;;;12.82;100.00
47636;BME280;33364;50.766;15.338;2022-10-16T03:17:07;94904.16;;;12.84;100.00
47636;BME280;33364;50.766;15.338;2022-10-16T03:19:32;94899.09;;;12.82;100.00
47636;BME280;33364;50.766;15.338;2022-10-16T03:21:58;94906.91;;;12.82;100.00
47636;BME280;33364;50.766;15.338;2022-10-16T03:24:24;94913.72;;;12.83;100.00
47636;BME280;33364;50.766;15.338;2022-10-16T03:26:49;94911.69;;;12.87;100.00
47636;BME280;33364;50.766;15.338;2022-10-16T03:29:15;94909.91;;;12.87;100.00
47636;BME280;33364;50.766;15.338;2022-10-16T03:31:40;94911.84;;;12.85;100.00
47636;BME280;33364;50.766;15.338;2022-10-16T03:34:06;94910.31;;;12.83;100.00
47636;BME280;33364;50.766;15.338;2022-10-16T03:36:32;94911.44;;;12.80;100.00
47636;BME280;33364;50.766;15.338;2022-10-16T03:38:57;94912.34;;;12.79;100.00
47636;BME280;33364;50.766;15.338;2022-10-16T03:41:23;94906.34;;;12.79;100.00
47636;BME280;33364;50.766;15.338;2022-10-16T03:43:48;94917.56;;;12.79;100.00
47636;BME280;33364;50.766;15.338;2022-10-16T03:46:14;94903.91;;;12.77;100.00
47636;BME280;33364;50.766;15.338;2022-10-16T03:48:40;94909.91;;;12.78;100.00
47636;BME280;33364;50.766;15.338;2022-10-16T03:51:06;94910.72;;;12.78;100.00
47636;BME280;33364;50.766;15.338;2022-10-16T03:53:31;94910.72;;;12.78;100.00
47636;BME280;33364;50.766;15.338;2022-10-16T03:55:57;94926.44;;;12.77;100.00
47636;BME280;33364;50.766;15.338;2022-10-16T03:58:23;94925.50;;;12.78;100.00
47636;BME280;33364;50.766;15.338;2022-10-16T04:00:49;94927.28;;;12.77;100.00
47636;BME280;33364;50.766;15.338;2022-10-16T04:03:15;94921.81;;;12.80;100.00
47636;BME280;33364;50.766;15.338;2022-10-16T04:05:41;94918.38;;;12.80;100.00
47636;BME280;33364;50.766;15.338;2022-10-16T04:10:32;94920.28;;;12.78;100.00
47636;BME280;33364;50.766;15.338;2022-10-16T04:12:58;94916.31;;;12.74;100.00
47636;BME280;33364;50.766;15.338;2022-10-16T04:15:24;94916.72;;;12.79;100.00
47636;BME280;33364;50.766;15.338;2022-10-16T04:17:50;94919.47;;;12.77;100.00
47636;BME280;33364;50.766;15.338;2022-10-16T04:20:16;94917.84;;;12.76;100.00
47636;BME280;33364;50.766;15.338;2022-10-16T04:22:41;94923.31;;;12.73;100.00
47636;BME280;33364;50.766;15.338;2022-10-16T04:25:07;94912.09;;;12.73;100.00
47636;BME280;33364;50.766;15.338;2022-10-16T04:27:33;94917.97;;;12.75;100.00
47636;BME280;33364;50.766;15.338;2022-10-16T04:29:59;94926.59;;;12.75;100.00
47636;BME280;33364;50.766;15.338;2022-10-16T04:32:26;94926.59;;;12.75;100.00
47636;BME280;33364;50.766;15.338;2022-10-16T04:34:52;94928.09;;;12.78;100.00
47636;BME280;33364;50.766;15.338;2022-10-16T04:37:18;94934.25;;;12.77;100.00
47636;BME280;33364;50.766;15.338;2022-10-16T04:39:44;94938.63;;;12.76;100.00
47636;BME280;33364;50.766;15.338;2022-10-16T04:42:10;94947.38;;;12.75;100.00
47636;BME280;33364;50.766;15.338;2022-10-16T04:44:36;94947.38;;;12.75;100.00
47636;BME280;33364;50.766;15.338;2022-10-16T04:47:01;94948.44;;;12.73;100.00
47636;BME280;33364;50.766;15.338;2022-10-16T04:49:27;94951.88;;;12.73;100.00
47636;BME280;33364;50.766;15.338;2022-10-16T04:51:53;94948.72;;;12.79;100.00
47636;BME280;33364;50.766;15.338;2022-10-16T04:54:18;94950.50;;;12.79;100.00
47636;BME280;33364;50.766;15.338;2022-10-16T04:56:44;94955.28;;;12.83;100.00
47636;BME280;33364;50.766;15.338;2022-10-16T04:59:14;94953.78;;;12.81;100.00
47636;BME280;33364;50.766;15.338;2022-10-16T05:01:40;94953.91;;;12.79;100.00
47636;BME280;33364;50.766;15.338;2022-10-16T05:04:06;94954.72;;;12.80;100.00
47636;BME280;33364;50.766;15.338;2022-10-16T05:06:32;94965.97;;;12.80;100.00
47636;BME280;33364;50.766;15.338;2022-10-16T05:08:58;94966.91;;;12.79;100.00
47636;BME280;33364;50.766;15.338;2022-10-16T05:11:23;94956.66;;;12.78;100.00
47636;BME280;33364;50.766;15.338;2022-10-16T05:13:49;94957.47;;;12.78;100.00
47636;BME280;33364;50.766;15.338;2022-10-16T05:16:15;94958.19;;;12.80;100.00
47636;BME280;33364;50.766;15.338;2022-10-16T05:18:40;94966.09;;;12.79;100.00
47636;BME280;33364;50.766;15.338;2022-10-16T05:21:06;94961.03;;;12.77;100.00
47636;BME280;33364;50.766;15.338;2022-10-16T05:23:32;94959.00;;;12.81;100.00
47636;BME280;33364;50.766;15.338;2022-10-16T05:25:58;94971.16;;;12.80;100.00
47636;BME280;33364;50.766;15.338;2022-10-16T05:28:25;94973.88;;;12.79;100.00
47636;BME280;33364;50.766;15.338;2022-10-16T05:30:51;94984.16;;;12.80;100.00
47636;BME280;33364;50.766;15.338;2022-10-16T05:33:16;94982.47;;;12.79;100.00
47636;BME280;33364;50.766;15.338;2022-10-16T05:35:42;94978.25;;;12.78;100.00
47636;BME280;33364;50.766;15.338;2022-10-16T05:38:08;94961.84;;;12.78;100.00
47636;BME280;33364;50.766;15.338;2022-10-16T05:40:33;94968.81;;;12.77;100.00
47636;BME280;33364;50.766;15.338;2022-10-16T05:42:59;94965.25;;;12.78;100.00
47636;BME280;33364;50.766;15.338;2022-10-16T05:45:24;94971.56;;;12.76;100.00
47636;BME280;33364;50.766;15.338;2022-10-16T05:47:50;94980.19;;;12.76;100.00
47636;BME280;33364;50.766;15.338;2022-10-16T05:50:16;94985.38;;;12.76;100.00
47636;BME280;33364;50.766;15.338;2022-10-16T05:52:42;94990.41;;;12.78;100.00
47636;BME280;33364;50.766;15.338;2022-10-16T05:55:08;94994.78;;;12.77;100.00
47636;BME280;33364;50.766;15.338;2022-10-16T05:57:34;95007.78;;;12.77;100.00
47636;BME280;33364;50.766;15.338;2022-10-16T05:59:59;95017.34;;;12.77;100.00
47636;BME280;33364;50.766;15.338;2022-10-16T06:02:25;95018.16;;;12.77;100.00
47636;BME280;33364;50.766;15.338;2022-10-16T06:04:53;95025.00;;;12.78;100.00
47636;BME280;33364;50.766;15.338;2022-10-16T06:07:19;95032.66;;;12.80;100.00
47636;BME280;33364;50.766;15.338;2022-10-16T06:09:48;95037.59;;;12.83;100.00
47636;BME280;33364;50.766;15.338;2022-10-16T06:12:15;95034.84;;;12.84;100.00
47636;BME280;33364;50.766;15.338;2022-10-16T06:14:41;95052.50;;;12.81;100.00
47636;BME280;33364;50.766;15.338;2022-10-16T06:17:07;95047.41;;;12.79;100.00
47636;BME280;33364;50.766;15.338;2022-10-16T06:19:33;95053.31;;;12.81;100.00
47636;BME280;33364;50.766;15.338;2022-10-16T06:21:59;95059.47;;;12.80;100.00
47636;BME280;33364;50.766;15.338;2022-10-16T06:24:25;95048.53;;;12.77;100.00
47636;BME280;33364;50.766;15.338;2022-10-16T06:26:51;95051.78;;;12.79;100.00
47636;BME280;33364;50.766;15.338;2022-10-16T06:29:16;95049.59;;;12.84;100.00
47636;BME280;33364;50.766;15.338;2022-10-16T06:31:42;95056.59;;;12.83;100.00
47636;BME280;33364;50.766;15.338;2022-10-16T06:34:09;95048.25;;;12.89;100.00
47636;BME280;33364;50.766;15.338;2022-10-16T06:36:36;95057.00;;;12.88;100.00
47636;BME280;33364;50.766;15.338;2022-10-16T06:39:03;95051.13;;;12.86;100.00
47636;BME280;33364;50.766;15.338;2022-10-16T06:41:28;95052.09;;;12.85;100.00
47636;BME280;33364;50.766;15.338;2022-10-16T06:43:54;95061.53;;;12.86;100.00
47636;BME280;33364;50.766;15.338;2022-10-16T06:46:22;95060.56;;;12.87;100.00
47636;BME280;33364;50.766;15.338;2022-10-16T06:48:48;95065.50;;;12.90;100.00
47636;BME280;33364;50.766;15.338;2022-10-16T06:51:18;95066.03;;;12.94;100.00
47636;BME280;33364;50.766;15.338;2022-10-16T06:53:46;95075.59;;;12.93;100.00
47636;BME280;33364;50.766;15.338;2022-10-16T06:56:25;95084.22;;;12.94;100.00
47636;BME280;33364;50.766;15.338;2022-10-16T06:58:52;95091.91;;;12.95;100.00
47636;BME280;33364;50.766;15.338;2022-10-16T07:01:20;95097.34;;;12.92;100.00
47636;BME280;33364;50.766;15.338;2022-10-16T07:03:46;95096.66;;;12.90;100.00
47636;BME280;33364;50.766;15.338;2022-10-16T07:06:15;95081.19;;;12.89;100.00
47636;BME280;33364;50.766;15.338;2022-10-16T07:08:42;95101.59;;;12.93;100.00
47636;BME280;33364;50.766;15.338;2022-10-16T07:11:13;95096.38;;;12.93;100.00
47636;BME280;33364;50.766;15.338;2022-10-16T07:13:40;95103.22;;;12.94;100.00
47636;BME280;33364;50.766;15.338;2022-10-16T07:16:15;95102.53;;;12.92;100.00
47636;BME280;33364;50.766;15.338;2022-10-16T07:18:42;95107.75;;;12.92;100.00
47636;BME280;33364;50.766;15.338;2022-10-16T07:21:14;95110.47;;;12.91;100.00
47636;BME280;33364;50.766;15.338;2022-10-16T07:23:40;95114.97;;;12.89;100.00
47636;BME280;33364;50.766;15.338;2022-10-16T07:26:07;95121.53;;;12.93;100.00
47636;BME280;33364;50.766;15.338;2022-10-16T07:28:33;95113.91;;;12.91;100.00
47636;BME280;33364;50.766;15.338;2022-10-16T07:31:03;95122.66;;;12.90;100.00
47636;BME280;33364;50.766;15.338;2022-10-16T07:33:30;95131.38;;;12.89;100.00
47636;BME280;33364;50.766;15.338;2022-10-16T07:35:56;95131.50;;;12.88;100.00
47636;BME280;33364;50.766;15.338;2022-10-16T07:38:22;95139.16;;;12.89;100.00
47636;BME280;33364;50.766;15.338;2022-10-16T07:40:55;95132.19;;;12.90;100.00
47636;BME280;33364;50.766;15.338;2022-10-16T07:43:21;95137.66;;;12.87;100.00
47636;BME280;33364;50.766;15.338;2022-10-16T07:45:48;95146.28;;;12.87;100.00
47636;BME280;33364;50.766;15.338;2022-10-16T07:48:14;95141.91;;;12.88;100.00
47636;BME280;33364;50.766;15.338;2022-10-16T07:50:40;95143.81;;;12.86;100.00
47636;BME280;33364;50.766;15.338;2022-10-16T07:53:06;95145.59;;;12.85;100.00
47636;BME280;33364;50.766;15.338;2022-10-16T07:55:32;95155.03;;;12.86;100.00
47636;BME280;33364;50.766;15.338;2022-10-16T07:57:58;95162.00;;;12.86;100.00
47636;BME280;33364;50.766;15.338;2022-10-16T08:00:23;95159.53;;;12.84;100.00
47636;BME280;33364;50.766;15.338;2022-10-16T08:02:49;95162.94;;;12.85;100.00
47636;BME280;33364;50.766;15.338;2022-10-16T08:05:14;95157.63;;;12.86;100.00
47636;BME280;33364;50.766;15.338;2022-10-16T08:07:40;95160.91;;;12.88;100.00
47636;BME280;33364;50.766;15.338;2022-10-16T08:10:06;95161.63;;;12.90;100.00
47636;BME280;33364;50.766;15.338;2022-10-16T08:12:31;95161.63;;;12.90;100.00
47636;BME280;33364;50.766;15.338;2022-10-16T08:14:57;95170.22;;;12.91;100.00
47636;BME280;33364;50.766;15.338;2022-10-16T08:17:22;95175.28;;;12.92;100.00
47636;BME280;33364;50.766;15.338;2022-10-16T08:19:48;95169.94;;;12.94;100.00
47636;BME280;33364;50.766;15.338;2022-10-16T08:22:15;95173.38;;;12.94;100.00
47636;BME280;33364;50.766;15.338;2022-10-16T08:24:41;95178.16;;;12.99;100.00
47636;BME280;33364;50.766;15.338;2022-10-16T08:27:06;95177.22;;;13.00;100.00
47636;BME280;33364;50.766;15.338;2022-10-16T08:29:32;95177.09;;;13.02;100.00
47636;BME280;33364;50.766;15.338;2022-10-16T08:31:58;95183.09;;;13.02;100.00
47636;BME280;33364;50.766;15.338;2022-10-16T08:34:24;95184.75;;;13.03;100.00
47636;BME280;33364;50.766;15.338;2022-10-16T08:36:49;95184.06;;;13.01;100.00
47636;BME280;33364;50.766;15.338;2022-10-16T08:39:15;95185.84;;;13.01;100.00
47636;BME280;33364;50.766;15.338;2022-10-16T08:44:38;95185.47;;;13.05;100.00
47636;BME280;33364;50.766;15.338;2022-10-16T08:49:41;95185.31;;;13.07;100.00
47636;BME280;33364;50.766;15.338;2022-10-16T08:52:12;95186.69;;;13.11;100.00
47636;BME280;33364;50.766;15.338;2022-10-16T08:54:45;95182.44;;;13.10;100.00
47636;BME280;33364;50.766;15.338;2022-10-16T08:57:24;95184.91;;;13.11;100.00
47636;BME280;33364;50.766;15.338;2022-10-16T08:59:52;95187.53;;;13.11;100.00
47636;BME280;33364;50.766;15.338;2022-10-16T09:02:32;95184.78;;;13.13;100.00
47636;BME280;33364;50.766;15.338;2022-10-16T09:13:24;95198.41;;;13.26;100.00
47636;BME280;33364;50.766;15.338;2022-10-16T09:16:01;95201.03;;;13.36;100.00
47636;BME280;33364;50.766;15.338;2022-10-16T09:23:53;95211.84;;;13.41;100.00
47636;BME280;33364;50.766;15.338;2022-10-16T09:26:19;95209.09;;;13.42;100.00
47636;BME280;33364;50.766;15.338;2022-10-16T09:28:47;95203.75;;;13.44;100.00
47636;BME280;33364;50.766;15.338;2022-10-16T09:31:18;95201.97;;;13.44;100.00
47636;BME280;33364;50.766;15.338;2022-10-16T09:33:47;95210.59;;;13.45;100.00
47636;BME280;33364;50.766;15.338;2022-10-16T09:36:14;95209.50;;;13.47;100.00
47636;BME280;33364;50.766;15.338;2022-10-16T09:38:40;95204.59;;;13.54;100.00
47636;BME280;33364;50.766;15.338;2022-10-16T09:41:18;95199.94;;;13.58;100.00
47636;BME280;33364;50.766;15.338;2022-10-16T09:43:55;95204.44;;;13.65;100.00
47636;BME280;33364;50.766;15.338;2022-10-16T09:46:26;95197.63;;;13.74;100.00
47636;BME280;33364;50.766;15.338;2022-10-16T09:49:01;95198.19;;;13.78;100.00
47636;BME280;33364;50.766;15.338;2022-10-16T09:51:35;95186.66;;;13.80;100.00
47636;BME280;33364;50.766;15.338;2022-10-16T09:56:35;95186.97;;;13.87;100.00
47636;BME280;33364;50.766;15.338;2022-10-16T09:59:21;95194.06;;;13.94;100.00
47636;BME280;33364;50.766;15.338;2022-10-16T10:01:55;95200.91;;;14.05;100.00
47636;BME280;33364;50.766;15.338;2022-10-16T10:04:23;95204.59;;;14.12;100.00
47636;BME280;33364;50.766;15.338;2022-10-16T10:06:54;95209.00;;;14.12;100.00
47636;BME280;33364;50.766;15.338;2022-10-16T10:09:52;95217.63;;;14.12;100.00
47636;BME280;33364;50.766;15.338;2022-10-16T10:12:25;95216.09;;;14.10;100.00
47636;BME280;33364;50.766;15.338;2022-10-16T10:17:31;95215.84;;;14.13;100.00
47636;BME280;33364;50.766;15.338;2022-10-16T10:20:00;95224.31;;;14.15;100.00
47636;BME280;33364;50.766;15.338;2022-10-16T10:31:18;95226.25;;;14.13;100.00
47636;BME280;33364;50.766;15.338;2022-10-16T10:36:56;95215.84;;;14.22;100.00
47636;BME280;33364;50.766;15.338;2022-10-16T10:39:33;95213.06;;;14.34;100.00
47636;BME280;33364;50.766;15.338;2022-10-16T10:50:31;95224.03;;;14.57;100.00
47636;BME280;33364;50.766;15.338;2022-10-16T10:53:18;95210.19;;;14.56;100.00
47636;BME280;33364;50.766;15.338;2022-10-16T11:01:20;95214.44;;;14.57;100.00
47636;BME280;33364;50.766;15.338;2022-10-16T11:07:14;95205.78;;;14.66;100.00
47636;BME280;33364;50.766;15.338;2022-10-16T11:09:45;95213.41;;;14.77;100.00
47636;BME280;33364;50.766;15.338;2022-10-16T11:12:19;95216.97;;;14.86;100.00
47636;BME280;33364;50.766;15.338;2022-10-16T11:14:52;95214.03;;;14.89;100.00
47636;BME280;33364;50.766;15.338;2022-10-16T11:17:23;95219.06;;;15.00;100.00
47636;BME280;33364;50.766;15.338;2022-10-16T11:19:54;95221.63;;;15.10;100.00
47636;BME280;33364;50.766;15.338;2022-10-16T11:22:42;95220.78;;;15.19;100.00
47636;BME280;33364;50.766;15.338;2022-10-16T11:27:43;95218.28;;;15.27;100.00
47636;BME280;33364;50.766;15.338;2022-10-16T11:30:17;95206.00;;;15.38;100.00
47636;BME280;33364;50.766;15.338;2022-10-16T11:33:12;95217.25;;;15.66;100.00
47636;BME280;33364;50.766;15.338;2022-10-16T11:35:48;95217.66;;;15.89;100.00
47636;BME280;33364;50.766;15.338;2022-10-16T11:38:29;95213.69;;;16.02;100.00
47636;BME280;33364;50.766;15.338;2022-10-16T11:41:00;95223.44;;;16.00;100.00
47636;BME280;33364;50.766;15.338;2022-10-16T11:43:34;95233.53;;;15.95;100.00
47636;BME280;33364;50.766;15.338;2022-10-16T11:46:09;95240.16;;;15.90;100.00
47636;BME280;33364;50.766;15.338;2022-10-16T11:48:45;95233.84;;;15.92;100.00
47636;BME280;33364;50.766;15.338;2022-10-16T11:54:04;95241.28;;;15.87;100.00
47636;BME280;33364;50.766;15.338;2022-10-16T11:56:38;95234.50;;;15.76;100.00
47636;BME280;33364;50.766;15.338;2022-10-16T11:59:16;95242.78;;;15.72;100.00
47636;BME280;33364;50.766;15.338;2022-10-16T12:05:24;95232.91;;;15.66;100.00
47636;BME280;33364;50.766;15.338;2022-10-16T12:10:29;95244.88;;;15.59;100.00
47636;BME280;33364;50.766;15.338;2022-10-16T12:12:57;95249.44;;;15.57;100.00
47636;BME280;33364;50.766;15.338;2022-10-16T12:15:33;95257.91;;;15.59;100.00
47636;BME280;33364;50.766;15.338;2022-10-16T12:17:59;95253.34;;;15.61;100.00
47636;BME280;33364;50.766;15.338;2022-10-16T12:20:29;95251.69;;;15.69;100.00
47636;BME280;33364;50.766;15.338;2022-10-16T12:22:59;95238.66;;;15.69;100.00
47636;BME280;33364;50.766;15.338;2022-10-16T12:25:33;95243.59;;;15.72;100.00
47636;BME280;33364;50.766;15.338;2022-10-16T12:28:17;95251.53;;;15.71;100.00
47636;BME280;33364;50.766;15.338;2022-10-16T12:30:59;95252.00;;;15.66;100.00
47636;BME280;33364;50.766;15.338;2022-10-16T12:33:36;95259.53;;;15.69;100.00
47636;BME280;33364;50.766;15.338;2022-10-16T12:36:15;95251.72;;;15.60;100.00
47636;BME280;33364;50.766;15.338;2022-10-16T12:38:51;95266.19;;;15.54;100.00
47636;BME280;33364;50.766;15.338;2022-10-16T12:41:36;95257.53;;;15.53;100.00
47636;BME280;33364;50.766;15.338;2022-10-16T12:44:05;95265.63;;;15.50;100.00
47636;BME280;33364;50.766;15.338;2022-10-16T12:51:37;95251.69;;;15.42;100.00
47636;BME280;33364;50.766;15.338;2022-10-16T12:54:16;95258.16;;;15.38;100.00
47636;BME280;33364;50.766;15.338;2022-10-16T12:59:39;95270.50;;;15.36;100.00
47636;BME280;33364;50.766;15.338;2022-10-16T13:02:36;95267.41;;;15.32;100.00
47636;BME280;33364;50.766;15.338;2022-10-16T13:16:04;95273.66;;;15.39;100.00
47636;BME280;33364;50.766;15.338;2022-10-16T13:23:58;95284.28;;;15.55;100.00
47636;BME280;33364;50.766;15.338;2022-10-16T13:29:00;95287.13;;;15.72;100.00
47636;BME280;33364;50.766;15.338;2022-10-16T13:31:27;95297.69;;;15.70;100.00
47636;BME280;33364;50.766;15.338;2022-10-16T13:33:57;95295.25;;;15.69;100.00
47636;BME280;33364;50.766;15.338;2022-10-16T13:36:29;95294.66;;;15.75;100.00
47636;BME280;33364;50.766;15.338;2022-10-16T13:39:07;95304.00;;;15.77;100.00
47636;BME280;33364;50.766;15.338;2022-10-16T13:41:35;95305.47;;;15.80;100.00
47636;BME280;33364;50.766;15.338;2022-10-16T13:44:00;95298.03;;;15.85;100.00
47636;BME280;33364;50.766;15.338;2022-10-16T13:46:26;95292.69;;;15.87;100.00
47636;BME280;33364;50.766;15.338;2022-10-16T13:49:00;95302.97;;;15.88;100.00
47636;BME280;33364;50.766;15.338;2022-10-16T13:51:26;95306.00;;;15.84;100.00
47636;BME280;33364;50.766;15.338;2022-10-16T13:53:54;95305.84;;;15.85;100.00
47636;BME280;33364;50.766;15.338;2022-10-16T13:56:22;95305.47;;;15.80;100.00
47636;BME280;33364;50.766;15.338;2022-10-16T13:59:22;95303.72;;;15.71;100.00
47636;BME280;33364;50.766;15.338;2022-10-16T14:01:49;95305.53;;;15.70;100.00
47636;BME280;33364;50.766;15.338;2022-10-16T14:04:16;95310.09;;;15.68;100.00
47636;BME280;33364;50.766;15.338;2022-10-16T14:06:44;95308.28;;;15.69;100.00
47636;BME280;33364;50.766;15.338;2022-10-16T14:09:23;95310.25;;;15.67;100.00
47636;BME280;33364;50.766;15.338;2022-10-16T14:11:58;95310.09;;;15.68;100.00
47636;BME280;33364;50.766;15.338;2022-10-16T14:14:27;95304.31;;;15.65;100.00
47636;BME280;33364;50.766;15.338;2022-10-16T14:16:58;95303.63;;;15.63;100.00
47636;BME280;33364;50.766;15.338;2022-10-16T14:19:27;95309.81;;;15.62;100.00
47636;BME280;33364;50.766;15.338;2022-10-16T14:21:54;95322.47;;;15.57;100.00
47636;BME280;33364;50.766;15.338;2022-10-16T14:24:31;95317.53;;;15.53;100.00
47636;BME280;33364;50.766;15.338;2022-10-16T14:26:58;95315.59;;;15.55;100.00
47636;BME280;33364;50.766;15.338;2022-10-16T14:29:25;95314.09;;;15.53;100.00
47636;BME280;33364;50.766;15.338;2022-10-16T14:31:59;95321.94;;;15.53;100.00